sensor_id;sensor_type;location;lat;lon;timestamp;P1;durP1;ratioP1;P2;durP2;ratioP2
68212;SDS011;55035;47.792;8.724;2023-02-14T00:00:23;87.00;;;12.63;;
68212;SDS011;55035;47.792;8.724;2023-02-14T00:02:49;53.90;;;10.57;;
68212;SDS011;55035;47.792;8.724;2023-02-14T00:05:17;78.00;;;12.25;;
68212;SDS011;55035;47.792;8.724;2023-02-14T00:07:44;84.75;;;12.90;;
68212;SDS011;55035;47.792;8.724;2023-02-14T00:10:11;58.45;;;12.32;;
68212;SDS011;55035;47.792;8.724;2023-02-14T00:12:39;71.75;;;12.68;;
68212;SDS011;55035;47.792;8.724;2023-02-14T00:15:06;62.43;;;11.30;;
68212;SDS011;55035;47.792;8.724;2023-02-14T00:17:47;60.90;;;11.13;;
68212;SDS011;55035;47.792;8.724;2023-02-14T00:20:14;73.68;;;11.80;;
68212;SDS011;55035;47.792;8.724;2023-02-14T00:22:41;139.45;;;12.45;;
68212;SDS011;55035;47.792;8.724;2023-02-14T00:25:08;68.63;;;10.98;;
68212;SDS011;55035;47.792;8.724;2023-02-14T00:27:36;81.77;;;11.10;;
68212;SDS011;55035;47.792;8.724;2023-02-14T00:30:06;83.03;;;11.88;;
68212;SDS011;55035;47.792;8.724;2023-02-14T00:32:33;97.13;;;12.00;;
68212;SDS011;55035;47.792;8.724;2023-02-14T00:35:00;105.07;;;12.60;;
68212;SDS011;55035;47.792;8.724;2023-02-14T00:37:27;128.07;;;12.63;;
68212;SDS011;55035;47.792;8.724;2023-02-14T00:39:53;92.13;;;11.13;;
68212;SDS011;55035;47.792;8.724;2023-02-14T00:42:20;68.25;;;11.63;;
68212;SDS011;55035;47.792;8.724;2023-02-14T00:44:47;53.45;;;11.57;;
68212;SDS011;55035;47.792;8.724;2023-02-14T00:47:16;66.32;;;11.93;;
68212;SDS011;55035;47.792;8.724;2023-02-14T00:49:43;71.47;;;12.18;;
68212;SDS011;55035;47.792;8.724;2023-02-14T00:52:10;94.33;;;12.43;;
68212;SDS011;55035;47.792;8.724;2023-02-14T00:54:37;74.18;;;11.13;;
68212;SDS011;55035;47.792;8.724;2023-02-14T00:57:04;63.22;;;11.13;;
68212;SDS011;55035;47.792;8.724;2023-02-14T00:59:30;68.30;;;11.02;;
68212;SDS011;55035;47.792;8.724;2023-02-14T01:01:57;62.63;;;10.88;;
68212;SDS011;55035;47.792;8.724;2023-02-14T01:04:25;40.90;;;10.80;;
68212;SDS011;55035;47.792;8.724;2023-02-14T01:06:53;50.85;;;11.40;;
68212;SDS011;55035;47.792;8.724;2023-02-14T01:09:20;50.42;;;11.93;;
68212;SDS011;55035;47.792;8.724;2023-02-14T01:11:47;45.25;;;10.63;;
68212;SDS011;55035;47.792;8.724;2023-02-14T01:14:14;58.90;;;11.32;;
68212;SDS011;55035;47.792;8.724;2023-02-14T01:16:41;52.00;;;11.73;;
68212;SDS011;55035;47.792;8.724;2023-02-14T01:19:08;72.25;;;11.40;;
68212;SDS011;55035;47.792;8.724;2023-02-14T01:21:36;82.10;;;11.40;;
68212;SDS011;55035;47.792;8.724;2023-02-14T01:24:04;56.42;;;10.93;;
68212;SDS011;55035;47.792;8.724;2023-02-14T01:26:33;72.47;;;12.02;;
68212;SDS011;55035;47.792;8.724;2023-02-14T01:29:00;63.20;;;11.33;;
68212;SDS011;55035;47.792;8.724;2023-02-14T01:31:28;55.88;;;12.55;;
68212;SDS011;55035;47.792;8.724;2023-02-14T01:33:56;59.05;;;13.00;;
68212;SDS011;55035;47.792;8.724;2023-02-14T01:36:24;47.75;;;11.52;;
68212;SDS011;55035;47.792;8.724;2023-02-14T01:38:53;75.45;;;11.63;;
68212;SDS011;55035;47.792;8.724;2023-02-14T01:41:22;73.23;;;11.53;;
68212;SDS011;55035;47.792;8.724;2023-02-14T01:43:49;48.25;;;10.63;;
68212;SDS011;55035;47.792;8.724;2023-02-14T01:46:16;55.95;;;11.15;;
68212;SDS011;55035;47.792;8.724;2023-02-14T01:48:43;49.92;;;11.10;;
68212;SDS011;55035;47.792;8.724;2023-02-14T01:51:11;49.90;;;11.93;;
68212;SDS011;55035;47.792;8.724;2023-02-14T01:53:38;59.67;;;11.03;;
68212;SDS011;55035;47.792;8.724;2023-02-14T01:56:07;68.80;;;11.13;;
68212;SDS011;55035;47.792;8.724;2023-02-14T01:58:35;69.97;;;11.80;;
68212;SDS011;55035;47.792;8.724;2023-02-14T02:01:03;73.93;;;10.38;;
68212;SDS011;55035;47.792;8.724;2023-02-14T02:03:31;58.88;;;10.15;;
68212;SDS011;55035;47.792;8.724;2023-02-14T02:06:02;83.87;;;10.03;;
68212;SDS011;55035;47.792;8.724;2023-02-14T02:08:32;61.53;;;8.98;;
68212;SDS011;55035;47.792;8.724;2023-02-14T02:11:00;68.20;;;10.93;;
68212;SDS011;55035;47.792;8.724;2023-02-14T02:13:28;67.53;;;10.25;;
68212;SDS011;55035;47.792;8.724;2023-02-14T02:15:58;69.72;;;11.52;;
68212;SDS011;55035;47.792;8.724;2023-02-14T02:18:32;68.17;;;10.27;;
68212;SDS011;55035;47.792;8.724;2023-02-14T02:24:03;78.85;;;10.32;;
68212;SDS011;55035;47.792;8.724;2023-02-14T02:32:15;54.90;;;9.97;;
68212;SDS011;55035;47.792;8.724;2023-02-14T02:37:35;71.40;;;9.77;;
68212;SDS011;55035;47.792;8.724;2023-02-14T02:40:05;91.95;;;9.55;;
68212;SDS011;55035;47.792;8.724;2023-02-14T02:42:35;59.38;;;8.75;;
68212;SDS011;55035;47.792;8.724;2023-02-14T02:45:09;66.97;;;9.73;;
68212;SDS011;55035;47.792;8.724;2023-02-14T02:47:39;59.42;;;10.38;;
68212;SDS011;55035;47.792;8.724;2023-02-14T02:50:10;62.38;;;10.00;;
68212;SDS011;55035;47.792;8.724;2023-02-14T02:53:03;46.85;;;9.00;;
68212;SDS011;55035;47.792;8.724;2023-02-14T02:55:37;53.00;;;9.63;;
68212;SDS011;55035;47.792;8.724;2023-02-14T02:58:24;52.20;;;9.50;;
68212;SDS011;55035;47.792;8.724;2023-02-14T03:00:52;40.85;;;9.45;;
68212;SDS011;55035;47.792;8.724;2023-02-14T03:03:20;43.42;;;9.90;;
68212;SDS011;55035;47.792;8.724;2023-02-14T03:06:06;47.35;;;9.27;;
68212;SDS011;55035;47.792;8.724;2023-02-14T03:08:35;49.17;;;9.93;;
68212;SDS011;55035;47.792;8.724;2023-02-14T03:11:01;54.80;;;10.03;;
68212;SDS011;55035;47.792;8.724;2023-02-14T03:13:37;43.13;;;10.05;;
68212;SDS011;55035;47.792;8.724;2023-02-14T03:16:12;38.33;;;9.30;;
68212;SDS011;55035;47.792;8.724;2023-02-14T03:18:49;44.75;;;9.32;;
68212;SDS011;55035;47.792;8.724;2023-02-14T03:21:41;42.60;;;9.07;;
68212;SDS011;55035;47.792;8.724;2023-02-14T03:24:12;28.90;;;8.40;;
68212;SDS011;55035;47.792;8.724;2023-02-14T03:26:43;33.35;;;9.00;;
68212;SDS011;55035;47.792;8.724;2023-02-14T03:29:14;32.80;;;10.45;;
68212;SDS011;55035;47.792;8.724;2023-02-14T03:31:44;30.13;;;10.00;;
68212;SDS011;55035;47.792;8.724;2023-02-14T03:34:16;34.03;;;10.15;;
68212;SDS011;55035;47.792;8.724;2023-02-14T03:36:47;32.03;;;9.73;;
68212;SDS011;55035;47.792;8.724;2023-02-14T03:39:19;33.55;;;10.10;;
68212;SDS011;55035;47.792;8.724;2023-02-14T03:41:47;35.20;;;10.27;;
68212;SDS011;55035;47.792;8.724;2023-02-14T03:44:16;43.20;;;10.18;;
68212;SDS011;55035;47.792;8.724;2023-02-14T03:46:44;47.28;;;10.15;;
68212;SDS011;55035;47.792;8.724;2023-02-14T03:49:13;41.73;;;10.80;;
68212;SDS011;55035;47.792;8.724;2023-02-14T03:51:41;36.92;;;9.70;;
68212;SDS011;55035;47.792;8.724;2023-02-14T03:54:10;39.05;;;10.63;;
68212;SDS011;55035;47.792;8.724;2023-02-14T03:56:41;39.25;;;9.95;;
68212;SDS011;55035;47.792;8.724;2023-02-14T03:59:12;41.55;;;10.50;;
68212;SDS011;55035;47.792;8.724;2023-02-14T04:01:41;35.73;;;11.67;;
68212;SDS011;55035;47.792;8.724;2023-02-14T04:04:10;50.05;;;12.35;;
68212;SDS011;55035;47.792;8.724;2023-02-14T04:06:38;29.73;;;10.70;;
68212;SDS011;55035;47.792;8.724;2023-02-14T04:09:05;47.05;;;11.60;;
68212;SDS011;55035;47.792;8.724;2023-02-14T04:11:32;42.95;;;12.02;;
68212;SDS011;55035;47.792;8.724;2023-02-14T04:14:01;38.17;;;13.03;;
68212;SDS011;55035;47.792;8.724;2023-02-14T04:16:28;42.97;;;11.85;;
68212;SDS011;55035;47.792;8.724;2023-02-14T04:18:55;34.05;;;11.52;;
68212;SDS011;55035;47.792;8.724;2023-02-14T04:21:39;34.15;;;11.10;;
68212;SDS011;55035;47.792;8.724;2023-02-14T04:24:06;41.65;;;12.95;;
68212;SDS011;55035;47.792;8.724;2023-02-14T04:26:33;45.90;;;12.03;;
68212;SDS011;55035;47.792;8.724;2023-02-14T04:29:00;40.20;;;11.23;;
68212;SDS011;55035;47.792;8.724;2023-02-14T04:31:28;35.58;;;10.73;;
68212;SDS011;55035;47.792;8.724;2023-02-14T04:33:54;40.20;;;11.13;;
68212;SDS011;55035;47.792;8.724;2023-02-14T04:36:21;36.42;;;11.60;;
68212;SDS011;55035;47.792;8.724;2023-02-14T04:38:49;35.43;;;11.23;;
68212;SDS011;55035;47.792;8.724;2023-02-14T04:41:15;35.55;;;11.00;;
68212;SDS011;55035;47.792;8.724;2023-02-14T04:43:42;37.50;;;11.32;;
68212;SDS011;55035;47.792;8.724;2023-02-14T04:46:09;37.83;;;11.32;;
68212;SDS011;55035;47.792;8.724;2023-02-14T04:48:37;33.88;;;11.82;;
68212;SDS011;55035;47.792;8.724;2023-02-14T04:51:04;35.53;;;11.70;;
68212;SDS011;55035;47.792;8.724;2023-02-14T04:53:31;42.45;;;12.65;;
68212;SDS011;55035;47.792;8.724;2023-02-14T04:55:58;34.83;;;12.05;;
68212;SDS011;55035;47.792;8.724;2023-02-14T04:58:24;36.65;;;11.32;;
68212;SDS011;55035;47.792;8.724;2023-02-14T05:00:51;39.35;;;12.20;;
68212;SDS011;55035;47.792;8.724;2023-02-14T05:03:18;28.63;;;9.07;;
68212;SDS011;55035;47.792;8.724;2023-02-14T05:05:46;36.65;;;11.55;;
68212;SDS011;55035;47.792;8.724;2023-02-14T05:08:13;37.08;;;11.18;;
68212;SDS011;55035;47.792;8.724;2023-02-14T05:10:40;40.75;;;10.90;;
68212;SDS011;55035;47.792;8.724;2023-02-14T05:13:07;42.42;;;11.90;;
68212;SDS011;55035;47.792;8.724;2023-02-14T05:15:34;40.57;;;11.60;;
68212;SDS011;55035;47.792;8.724;2023-02-14T05:18:00;49.80;;;11.27;;
68212;SDS011;55035;47.792;8.724;2023-02-14T05:20:30;42.80;;;12.40;;
68212;SDS011;55035;47.792;8.724;2023-02-14T05:22:58;46.65;;;12.18;;
68212;SDS011;55035;47.792;8.724;2023-02-14T05:25:27;33.80;;;11.80;;
68212;SDS011;55035;47.792;8.724;2023-02-14T05:27:54;44.63;;;11.97;;
68212;SDS011;55035;47.792;8.724;2023-02-14T05:30:21;47.33;;;12.70;;
68212;SDS011;55035;47.792;8.724;2023-02-14T05:32:52;45.75;;;11.82;;
68212;SDS011;55035;47.792;8.724;2023-02-14T05:35:19;45.20;;;12.18;;
68212;SDS011;55035;47.792;8.724;2023-02-14T05:37:45;32.78;;;11.48;;
68212;SDS011;55035;47.792;8.724;2023-02-14T05:40:14;41.60;;;11.17;;
68212;SDS011;55035;47.792;8.724;2023-02-14T05:42:41;45.83;;;11.93;;
68212;SDS011;55035;47.792;8.724;2023-02-14T05:45:08;43.55;;;12.57;;
68212;SDS011;55035;47.792;8.724;2023-02-14T05:47:36;43.63;;;12.15;;
68212;SDS011;55035;47.792;8.724;2023-02-14T05:50:03;40.42;;;12.20;;
68212;SDS011;55035;47.792;8.724;2023-02-14T05:52:30;44.17;;;12.40;;
68212;SDS011;55035;47.792;8.724;2023-02-14T05:54:57;47.45;;;13.35;;
68212;SDS011;55035;47.792;8.724;2023-02-14T05:57:25;42.60;;;12.98;;
68212;SDS011;55035;47.792;8.724;2023-02-14T05:59:52;42.17;;;11.50;;
68212;SDS011;55035;47.792;8.724;2023-02-14T06:02:19;40.83;;;12.30;;
68212;SDS011;55035;47.792;8.724;2023-02-14T06:04:46;50.60;;;13.10;;
68212;SDS011;55035;47.792;8.724;2023-02-14T06:07:13;46.08;;;12.40;;
68212;SDS011;55035;47.792;8.724;2023-02-14T06:09:40;46.88;;;12.52;;
68212;SDS011;55035;47.792;8.724;2023-02-14T06:12:07;42.08;;;12.02;;
68212;SDS011;55035;47.792;8.724;2023-02-14T06:14:35;43.95;;;12.07;;
68212;SDS011;55035;47.792;8.724;2023-02-14T06:17:02;38.37;;;11.63;;
68212;SDS011;55035;47.792;8.724;2023-02-14T06:19:29;40.80;;;11.80;;
68212;SDS011;55035;47.792;8.724;2023-02-14T06:21:56;46.50;;;11.40;;
68212;SDS011;55035;47.792;8.724;2023-02-14T06:24:22;39.00;;;11.73;;
68212;SDS011;55035;47.792;8.724;2023-02-14T06:26:51;43.38;;;12.20;;
68212;SDS011;55035;47.792;8.724;2023-02-14T06:29:18;34.77;;;11.47;;
68212;SDS011;55035;47.792;8.724;2023-02-14T06:31:47;40.00;;;12.05;;
68212;SDS011;55035;47.792;8.724;2023-02-14T06:34:13;46.17;;;12.75;;
68212;SDS011;55035;47.792;8.724;2023-02-14T06:36:40;36.60;;;11.82;;
68212;SDS011;55035;47.792;8.724;2023-02-14T06:39:07;40.10;;;12.80;;
68212;SDS011;55035;47.792;8.724;2023-02-14T06:41:34;36.40;;;11.47;;
68212;SDS011;55035;47.792;8.724;2023-02-14T06:44:00;43.67;;;11.70;;
68212;SDS011;55035;47.792;8.724;2023-02-14T06:46:28;43.05;;;12.82;;
68212;SDS011;55035;47.792;8.724;2023-02-14T06:48:56;39.25;;;11.50;;
68212;SDS011;55035;47.792;8.724;2023-02-14T06:51:24;41.25;;;12.45;;
68212;SDS011;55035;47.792;8.724;2023-02-14T06:53:51;38.20;;;11.60;;
68212;SDS011;55035;47.792;8.724;2023-02-14T06:56:19;49.50;;;12.77;;
68212;SDS011;55035;47.792;8.724;2023-02-14T06:58:45;36.97;;;13.43;;
68212;SDS011;55035;47.792;8.724;2023-02-14T07:01:13;41.30;;;12.43;;
68212;SDS011;55035;47.792;8.724;2023-02-14T07:03:40;43.92;;;13.13;;
68212;SDS011;55035;47.792;8.724;2023-02-14T07:06:08;46.70;;;13.33;;
68212;SDS011;55035;47.792;8.724;2023-02-14T07:08:35;36.55;;;12.20;;
68212;SDS011;55035;47.792;8.724;2023-02-14T07:11:03;34.28;;;11.82;;
68212;SDS011;55035;47.792;8.724;2023-02-14T07:13:30;41.58;;;14.00;;
68212;SDS011;55035;47.792;8.724;2023-02-14T07:15:57;40.80;;;13.77;;
68212;SDS011;55035;47.792;8.724;2023-02-14T07:18:24;39.00;;;12.57;;
68212;SDS011;55035;47.792;8.724;2023-02-14T07:20:52;40.75;;;12.88;;
68212;SDS011;55035;47.792;8.724;2023-02-14T07:23:20;51.38;;;13.82;;
68212;SDS011;55035;47.792;8.724;2023-02-14T07:25:47;43.53;;;13.55;;
68212;SDS011;55035;47.792;8.724;2023-02-14T07:28:14;51.72;;;13.73;;
68212;SDS011;55035;47.792;8.724;2023-02-14T07:30:41;43.40;;;12.57;;
68212;SDS011;55035;47.792;8.724;2023-02-14T07:33:08;48.15;;;13.13;;
68212;SDS011;55035;47.792;8.724;2023-02-14T07:35:37;40.97;;;12.27;;
68212;SDS011;55035;47.792;8.724;2023-02-14T07:38:03;39.42;;;12.20;;
68212;SDS011;55035;47.792;8.724;2023-02-14T07:40:32;40.60;;;13.40;;
68212;SDS011;55035;47.792;8.724;2023-02-14T07:42:59;42.23;;;13.83;;
68212;SDS011;55035;47.792;8.724;2023-02-14T07:45:27;38.53;;;13.30;;
68212;SDS011;55035;47.792;8.724;2023-02-14T07:47:54;42.88;;;13.15;;
68212;SDS011;55035;47.792;8.724;2023-02-14T07:50:23;56.78;;;18.75;;
68212;SDS011;55035;47.792;8.724;2023-02-14T07:52:50;48.58;;;15.02;;
68212;SDS011;55035;47.792;8.724;2023-02-14T07:55:17;49.90;;;15.47;;
68212;SDS011;55035;47.792;8.724;2023-02-14T07:57:47;58.58;;;18.50;;
68212;SDS011;55035;47.792;8.724;2023-02-14T08:00:14;46.97;;;15.00;;
68212;SDS011;55035;47.792;8.724;2023-02-14T08:02:42;40.00;;;13.88;;
68212;SDS011;55035;47.792;8.724;2023-02-14T08:05:08;43.42;;;14.15;;
68212;SDS011;55035;47.792;8.724;2023-02-14T08:07:35;38.27;;;13.50;;
68212;SDS011;55035;47.792;8.724;2023-02-14T08:10:02;51.72;;;14.05;;
68212;SDS011;55035;47.792;8.724;2023-02-14T08:12:29;52.15;;;13.48;;
68212;SDS011;55035;47.792;8.724;2023-02-14T08:15:16;45.85;;;14.65;;
68212;SDS011;55035;47.792;8.724;2023-02-14T08:18:01;38.22;;;13.80;;
68212;SDS011;55035;47.792;8.724;2023-02-14T08:20:28;37.50;;;12.60;;
68212;SDS011;55035;47.792;8.724;2023-02-14T08:22:55;38.83;;;13.57;;
68212;SDS011;55035;47.792;8.724;2023-02-14T08:25:22;38.70;;;14.00;;
68212;SDS011;55035;47.792;8.724;2023-02-14T08:27:49;40.70;;;13.32;;
68212;SDS011;55035;47.792;8.724;2023-02-14T08:30:19;37.65;;;12.57;;
68212;SDS011;55035;47.792;8.724;2023-02-14T08:32:45;39.10;;;12.10;;
68212;SDS011;55035;47.792;8.724;2023-02-14T08:35:13;37.83;;;12.95;;
68212;SDS011;55035;47.792;8.724;2023-02-14T08:37:40;45.03;;;12.05;;
68212;SDS011;55035;47.792;8.724;2023-02-14T08:40:08;41.75;;;12.25;;
68212;SDS011;55035;47.792;8.724;2023-02-14T08:42:34;38.40;;;11.43;;
68212;SDS011;55035;47.792;8.724;2023-02-14T08:45:02;37.37;;;11.93;;
68212;SDS011;55035;47.792;8.724;2023-02-14T08:47:31;30.73;;;10.60;;
68212;SDS011;55035;47.792;8.724;2023-02-14T08:50:00;36.13;;;12.73;;
68212;SDS011;55035;47.792;8.724;2023-02-14T08:52:27;52.60;;;16.48;;
68212;SDS011;55035;47.792;8.724;2023-02-14T08:54:54;45.78;;;15.13;;
68212;SDS011;55035;47.792;8.724;2023-02-14T08:57:21;43.25;;;13.57;;
68212;SDS011;55035;47.792;8.724;2023-02-14T08:59:48;46.90;;;12.73;;
68212;SDS011;55035;47.792;8.724;2023-02-14T09:02:15;40.13;;;12.67;;
68212;SDS011;55035;47.792;8.724;2023-02-14T09:04:43;41.53;;;12.27;;
68212;SDS011;55035;47.792;8.724;2023-02-14T09:07:10;41.97;;;13.10;;
68212;SDS011;55035;47.792;8.724;2023-02-14T09:09:37;41.67;;;12.45;;
68212;SDS011;55035;47.792;8.724;2023-02-14T09:12:05;37.22;;;13.00;;
68212;SDS011;55035;47.792;8.724;2023-02-14T09:14:33;35.43;;;11.43;;
68212;SDS011;55035;47.792;8.724;2023-02-14T09:17:02;34.47;;;11.57;;
68212;SDS011;55035;47.792;8.724;2023-02-14T09:19:30;39.78;;;12.95;;
68212;SDS011;55035;47.792;8.724;2023-02-14T09:21:59;41.13;;;12.90;;
68212;SDS011;55035;47.792;8.724;2023-02-14T09:24:28;41.13;;;13.73;;
68212;SDS011;55035;47.792;8.724;2023-02-14T09:26:55;36.47;;;12.03;;
68212;SDS011;55035;47.792;8.724;2023-02-14T09:29:22;40.70;;;11.88;;
68212;SDS011;55035;47.792;8.724;2023-02-14T09:31:50;37.63;;;12.80;;
68212;SDS011;55035;47.792;8.724;2023-02-14T09:34:18;45.13;;;15.10;;
68212;SDS011;55035;47.792;8.724;2023-02-14T09:36:45;41.08;;;14.98;;
68212;SDS011;55035;47.792;8.724;2023-02-14T09:39:30;35.13;;;12.57;;
68212;SDS011;55035;47.792;8.724;2023-02-14T09:42:03;43.13;;;14.13;;
68212;SDS011;55035;47.792;8.724;2023-02-14T09:44:35;43.78;;;13.40;;
68212;SDS011;55035;47.792;8.724;2023-02-14T09:47:05;38.83;;;12.80;;
68212;SDS011;55035;47.792;8.724;2023-02-14T09:49:36;41.92;;;12.45;;
68212;SDS011;55035;47.792;8.724;2023-02-14T09:52:05;42.43;;;12.50;;
68212;SDS011;55035;47.792;8.724;2023-02-14T09:54:34;37.30;;;12.30;;
68212;SDS011;55035;47.792;8.724;2023-02-14T09:57:02;42.85;;;13.73;;
68212;SDS011;55035;47.792;8.724;2023-02-14T09:59:33;37.92;;;13.10;;
68212;SDS011;55035;47.792;8.724;2023-02-14T10:02:08;36.75;;;12.43;;
68212;SDS011;55035;47.792;8.724;2023-02-14T10:04:38;36.63;;;12.17;;
68212;SDS011;55035;47.792;8.724;2023-02-14T10:07:09;33.80;;;10.80;;
68212;SDS011;55035;47.792;8.724;2023-02-14T10:09:42;36.50;;;12.80;;
68212;SDS011;55035;47.792;8.724;2023-02-14T10:12:13;39.55;;;12.32;;
68212;SDS011;55035;47.792;8.724;2023-02-14T10:14:41;39.58;;;12.30;;
68212;SDS011;55035;47.792;8.724;2023-02-14T10:17:12;35.27;;;12.70;;
68212;SDS011;55035;47.792;8.724;2023-02-14T10:19:42;40.72;;;12.20;;
68212;SDS011;55035;47.792;8.724;2023-02-14T10:22:10;35.10;;;12.02;;
68212;SDS011;55035;47.792;8.724;2023-02-14T10:24:42;42.05;;;12.27;;
68212;SDS011;55035;47.792;8.724;2023-02-14T10:27:12;50.80;;;13.07;;
68212;SDS011;55035;47.792;8.724;2023-02-14T10:29:40;37.53;;;12.53;;
68212;SDS011;55035;47.792;8.724;2023-02-14T10:32:09;38.85;;;12.25;;
68212;SDS011;55035;47.792;8.724;2023-02-14T10:34:39;40.22;;;13.23;;
68212;SDS011;55035;47.792;8.724;2023-02-14T10:37:14;35.50;;;13.25;;
68212;SDS011;55035;47.792;8.724;2023-02-14T10:39:49;61.83;;;12.77;;
68212;SDS011;55035;47.792;8.724;2023-02-14T10:42:25;44.37;;;12.43;;
68212;SDS011;55035;47.792;8.724;2023-02-14T10:45:00;41.22;;;12.98;;
68212;SDS011;55035;47.792;8.724;2023-02-14T10:47:33;39.90;;;13.55;;
68212;SDS011;55035;47.792;8.724;2023-02-14T10:50:02;48.22;;;12.00;;
68212;SDS011;55035;47.792;8.724;2023-02-14T10:52:36;42.40;;;12.57;;
68212;SDS011;55035;47.792;8.724;2023-02-14T10:55:07;37.37;;;12.97;;
68212;SDS011;55035;47.792;8.724;2023-02-14T10:57:35;60.08;;;13.48;;
68212;SDS011;55035;47.792;8.724;2023-02-14T11:00:04;50.97;;;13.65;;
68212;SDS011;55035;47.792;8.724;2023-02-14T11:02:33;46.92;;;13.75;;
68212;SDS011;55035;47.792;8.724;2023-02-14T11:05:02;50.85;;;14.65;;
68212;SDS011;55035;47.792;8.724;2023-02-14T11:07:30;50.00;;;12.87;;
68212;SDS011;55035;47.792;8.724;2023-02-14T11:09:57;49.78;;;12.65;;
68212;SDS011;55035;47.792;8.724;2023-02-14T11:12:31;45.60;;;13.45;;
68212;SDS011;55035;47.792;8.724;2023-02-14T11:15:07;37.25;;;12.88;;
68212;SDS011;55035;47.792;8.724;2023-02-14T11:17:36;40.38;;;13.45;;
68212;SDS011;55035;47.792;8.724;2023-02-14T11:20:12;49.97;;;14.23;;
68212;SDS011;55035;47.792;8.724;2023-02-14T11:22:46;50.03;;;12.95;;
68212;SDS011;55035;47.792;8.724;2023-02-14T11:25:17;54.40;;;14.07;;
68212;SDS011;55035;47.792;8.724;2023-02-14T11:27:45;38.15;;;14.07;;
68212;SDS011;55035;47.792;8.724;2023-02-14T11:30:17;40.58;;;15.23;;
68212;SDS011;55035;47.792;8.724;2023-02-14T11:32:48;36.63;;;13.30;;
68212;SDS011;55035;47.792;8.724;2023-02-14T11:35:17;37.65;;;13.88;;
68212;SDS011;55035;47.792;8.724;2023-02-14T11:37:48;37.50;;;13.48;;
68212;SDS011;55035;47.792;8.724;2023-02-14T11:40:24;40.47;;;13.73;;
68212;SDS011;55035;47.792;8.724;2023-02-14T11:42:53;50.28;;;13.82;;
68212;SDS011;55035;47.792;8.724;2023-02-14T11:45:27;42.73;;;13.20;;
68212;SDS011;55035;47.792;8.724;2023-02-14T11:48:13;41.17;;;14.32;;
68212;SDS011;55035;47.792;8.724;2023-02-14T11:50:40;38.55;;;14.20;;
68212;SDS011;55035;47.792;8.724;2023-02-14T11:53:09;36.65;;;13.82;;
68212;SDS011;55035;47.792;8.724;2023-02-14T11:55:37;36.22;;;13.32;;
68212;SDS011;55035;47.792;8.724;2023-02-14T11:58:05;37.10;;;13.30;;
68212;SDS011;55035;47.792;8.724;2023-02-14T12:00:34;37.17;;;13.65;;
68212;SDS011;55035;47.792;8.724;2023-02-14T12:03:01;37.72;;;13.57;;
68212;SDS011;55035;47.792;8.724;2023-02-14T12:05:30;39.78;;;13.73;;
68212;SDS011;55035;47.792;8.724;2023-02-14T12:07:57;33.33;;;13.13;;
68212;SDS011;55035;47.792;8.724;2023-02-14T12:10:26;35.77;;;13.90;;
68212;SDS011;55035;47.792;8.724;2023-02-14T12:12:55;35.47;;;13.50;;
68212;SDS011;55035;47.792;8.724;2023-02-14T12:15:29;35.65;;;13.52;;
68212;SDS011;55035;47.792;8.724;2023-02-14T12:18:02;35.50;;;13.40;;
68212;SDS011;55035;47.792;8.724;2023-02-14T12:20:34;37.53;;;13.93;;
68212;SDS011;55035;47.792;8.724;2023-02-14T12:23:06;36.70;;;13.00;;
68212;SDS011;55035;47.792;8.724;2023-02-14T12:25:38;37.83;;;13.93;;
68212;SDS011;55035;47.792;8.724;2023-02-14T12:28:08;36.22;;;13.80;;
68212;SDS011;55035;47.792;8.724;2023-02-14T12:30:39;37.10;;;13.48;;
68212;SDS011;55035;47.792;8.724;2023-02-14T12:33:08;37.97;;;14.32;;
68212;SDS011;55035;47.792;8.724;2023-02-14T12:35:43;34.80;;;13.03;;
68212;SDS011;55035;47.792;8.724;2023-02-14T12:38:13;32.97;;;13.07;;
68212;SDS011;55035;47.792;8.724;2023-02-14T12:40:43;37.70;;;13.68;;
68212;SDS011;55035;47.792;8.724;2023-02-14T12:48:51;36.80;;;13.63;;
68212;SDS011;55035;47.792;8.724;2023-02-14T12:51:22;37.42;;;13.50;;
68212;SDS011;55035;47.792;8.724;2023-02-14T12:53:55;37.17;;;14.10;;
68212;SDS011;55035;47.792;8.724;2023-02-14T12:56:29;41.25;;;15.00;;
68212;SDS011;55035;47.792;8.724;2023-02-14T12:59:02;37.08;;;14.82;;
68212;SDS011;55035;47.792;8.724;2023-02-14T13:01:34;36.63;;;14.63;;
68212;SDS011;55035;47.792;8.724;2023-02-14T13:06:49;37.00;;;13.95;;
68212;SDS011;55035;47.792;8.724;2023-02-14T13:09:23;38.17;;;16.17;;
68212;SDS011;55035;47.792;8.724;2023-02-14T13:11:57;46.75;;;15.75;;
68212;SDS011;55035;47.792;8.724;2023-02-14T13:14:31;40.20;;;15.07;;
68212;SDS011;55035;47.792;8.724;2023-02-14T13:16:59;35.97;;;13.13;;
68212;SDS011;55035;47.792;8.724;2023-02-14T13:19:32;37.85;;;14.18;;
68212;SDS011;55035;47.792;8.724;2023-02-14T13:22:04;38.75;;;13.90;;
68212;SDS011;55035;47.792;8.724;2023-02-14T13:24:37;36.25;;;13.38;;
68212;SDS011;55035;47.792;8.724;2023-02-14T13:27:05;40.90;;;14.60;;
68212;SDS011;55035;47.792;8.724;2023-02-14T13:29:35;37.70;;;14.65;;
68212;SDS011;55035;47.792;8.724;2023-02-14T13:32:08;41.67;;;14.82;;
68212;SDS011;55035;47.792;8.724;2023-02-14T13:34:38;37.05;;;14.10;;
68212;SDS011;55035;47.792;8.724;2023-02-14T13:37:08;42.30;;;15.65;;
68212;SDS011;55035;47.792;8.724;2023-02-14T13:39:36;42.50;;;15.43;;
68212;SDS011;55035;47.792;8.724;2023-02-14T13:42:04;38.17;;;13.82;;
68212;SDS011;55035;47.792;8.724;2023-02-14T13:44:41;39.42;;;14.75;;
68212;SDS011;55035;47.792;8.724;2023-02-14T13:47:14;37.70;;;13.73;;
68212;SDS011;55035;47.792;8.724;2023-02-14T13:49:45;45.38;;;16.02;;
68212;SDS011;55035;47.792;8.724;2023-02-14T13:52:14;41.17;;;14.70;;
68212;SDS011;55035;47.792;8.724;2023-02-14T13:55:01;41.58;;;14.32;;
68212;SDS011;55035;47.792;8.724;2023-02-14T13:57:32;37.38;;;15.10;;
68212;SDS011;55035;47.792;8.724;2023-02-14T14:02:46;42.38;;;16.48;;
68212;SDS011;55035;47.792;8.724;2023-02-14T14:10:44;45.80;;;15.07;;
68212;SDS011;55035;47.792;8.724;2023-02-14T14:18:36;42.57;;;14.00;;
68212;SDS011;55035;47.792;8.724;2023-02-14T14:21:13;43.38;;;15.15;;
68212;SDS011;55035;47.792;8.724;2023-02-14T14:23:40;40.35;;;14.90;;
68212;SDS011;55035;47.792;8.724;2023-02-14T14:28:53;41.97;;;14.57;;
68212;SDS011;55035;47.792;8.724;2023-02-14T14:31:20;40.13;;;14.30;;
68212;SDS011;55035;47.792;8.724;2023-02-14T14:33:52;43.75;;;14.95;;
68212;SDS011;55035;47.792;8.724;2023-02-14T14:36:22;40.55;;;14.95;;
68212;SDS011;55035;47.792;8.724;2023-02-14T14:38:50;39.22;;;14.77;;
68212;SDS011;55035;47.792;8.724;2023-02-14T14:41:17;43.83;;;15.25;;
68212;SDS011;55035;47.792;8.724;2023-02-14T14:43:45;41.33;;;14.30;;
68212;SDS011;55035;47.792;8.724;2023-02-14T14:46:13;40.35;;;15.23;;
68212;SDS011;55035;47.792;8.724;2023-02-14T14:48:42;41.95;;;15.38;;
68212;SDS011;55035;47.792;8.724;2023-02-14T14:51:15;44.70;;;14.90;;
68212;SDS011;55035;47.792;8.724;2023-02-14T14:53:44;43.13;;;15.90;;
68212;SDS011;55035;47.792;8.724;2023-02-14T14:56:13;54.23;;;14.73;;
68212;SDS011;55035;47.792;8.724;2023-02-14T14:58:43;46.65;;;15.48;;
68212;SDS011;55035;47.792;8.724;2023-02-14T15:01:11;54.25;;;16.50;;
68212;SDS011;55035;47.792;8.724;2023-02-14T15:03:47;47.45;;;16.13;;
68212;SDS011;55035;47.792;8.724;2023-02-14T15:06:15;46.75;;;15.13;;
68212;SDS011;55035;47.792;8.724;2023-02-14T15:08:42;54.13;;;16.50;;
68212;SDS011;55035;47.792;8.724;2023-02-14T15:11:10;65.43;;;17.83;;